Time;durP1;ratioP1;P1;durP2;ratioP2;P2;SDS_P1;SDS_P2;PMS_P1;PMS_P2;Temp;Humidity;BMP_temperature;BMP_pressure;BME280_temperature;BME280_humidity;BME280_pressure;Samples;Min_cycle;Max_cycle;Signal;HPM_P1;HPM_P2
2023/09/15 00:02:25;;;;;;;6.03;3.70;;;;;;;22.39;64.08;99844.16;5058900;28;20070;-65
2023/09/15 00:04:51;;;;;;;10.75;4.30;;;;;;;22.38;64.58;99842.53;5058575;28;20044;-64
2023/09/15 00:07:17;;;;;;;9.07;4.07;;;;;;;22.29;65.29;99839.34;5058947;28;20033;-64
2023/09/15 00:09:42;;;;;;;6.97;4.13;;;;;;;22.20;65.69;99829.97;5058406;28;20033;-67
2023/09/15 00:12:08;;;;;;;6.28;3.78;;;;;;;22.28;65.55;99833.16;5057619;28;20199;-67
2023/09/15 00:14:34;;;;;;;6.60;3.83;;;;;;;22.16;66.15;99834.22;5057193;28;20105;-67
2023/09/15 00:17:02;;;;;;;7.65;4.32;;;;;;;22.05;67.12;99833.16;5057211;28;20120;-64
2023/09/15 00:19:28;;;;;;;8.52;4.15;;;;;;;22.19;66.51;99842.66;5056147;28;20060;-64
2023/09/15 00:21:53;;;;;;;7.30;4.40;;;;;;;22.33;66.33;99842.41;5057330;28;20444;-65
2023/09/15 00:24:19;;;;;;;8.90;4.68;;;;;;;22.38;65.88;99848.72;5057548;28;20047;-65
2023/09/15 00:26:44;;;;;;;7.57;4.25;;;;;;;22.51;65.36;99843.09;5057255;28;20040;-65
2023/09/15 00:29:11;;;;;;;8.20;3.83;;;;;;;22.51;65.34;99858.44;5057805;28;20156;-67
2023/09/15 00:31:37;;;;;;;8.40;4.35;;;;;;;22.52;65.27;99852.00;5057381;28;20250;-67
2023/09/15 00:34:04;;;;;;;7.72;4.32;;;;;;;22.49;65.41;99845.19;5057604;28;20078;-64
2023/09/15 00:36:29;;;;;;;6.63;3.72;;;;;;;22.44;65.62;99847.78;5056661;28;20032;-64
2023/09/15 00:38:55;;;;;;;5.30;3.65;;;;;;;22.45;65.57;99849.44;5057549;28;20029;-65
2023/09/15 00:41:20;;;;;;;8.73;4.72;;;;;;;22.40;65.77;99849.31;5056802;28;20044;-67
2023/09/15 00:43:45;;;;;;;7.57;3.90;;;;;;;22.35;66.00;99856.47;5057106;28;20341;-67
2023/09/15 00:46:12;;;;;;;5.82;4.07;;;;;;;22.41;65.82;99852.84;5057114;28;20028;-67
2023/09/15 00:48:39;;;;;;;6.72;4.03;;;;;;;22.27;65.89;99868.44;5057205;28;20490;-67
2023/09/15 00:51:07;;;;;;;5.85;4.00;;;;;;;22.11;66.61;99855.66;5056019;28;20049;-65
2023/09/15 00:53:35;;;;;;;7.57;4.05;;;;;;;22.02;67.11;99862.44;5058233;28;20033;-67
2023/09/15 00:56:01;;;;;;;7.95;4.60;;;;;;;22.02;67.35;99860.56;5059386;28;20025;-65
2023/09/15 00:58:27;;;;;;;7.30;4.15;;;;;;;22.03;67.46;99862.22;5059071;28;20025;-67
2023/09/15 01:00:52;;;;;;;9.02;4.50;;;;;;;22.21;66.66;99866.69;5058302;28;20302;-67
2023/09/15 01:03:22;;;;;;;7.82;4.30;;;;;;;22.17;66.46;99868.22;5058323;28;20039;-67
2023/09/15 01:05:47;;;;;;;6.70;3.83;;;;;;;22.25;66.48;99867.84;5058049;28;20041;-67
2023/09/15 01:08:13;;;;;;;6.55;4.30;;;;;;;22.14;66.44;99868.69;5058208;28;20057;-65
2023/09/15 01:10:39;;;;;;;7.60;4.18;;;;;;;22.10;65.74;99871.03;5057319;28;20028;-67
2023/09/15 01:13:05;;;;;;;8.77;4.30;;;;;;;21.89;65.57;99866.19;5057946;28;20052;-67
2023/09/15 01:15:51;;;;;;;6.97;3.92;;;;;;;21.76;66.05;99860.97;5057662;28;20111;-64
2023/09/15 01:18:26;;;;;;;5.15;3.95;;;;;;;21.68;65.32;99857.56;5057055;28;20033;-67
2023/09/15 01:21:00;;;;;;;9.10;4.25;;;;;;;21.79;64.66;99866.72;5058003;28;20365;-64
2023/09/15 01:23:36;;;;;;;6.57;4.00;;;;;;;21.95;63.81;99874.16;5057938;28;20100;-65
2023/09/15 01:26:29;;;;;;;6.22;4.10;;;;;;;22.02;62.94;99874.03;5057958;28;20041;-67
2023/09/15 01:29:00;;;;;;;7.35;3.97;;;;;;;22.16;60.55;99880.06;5057621;28;20111;-67
2023/09/15 01:31:26;;;;;;;9.60;4.43;;;;;;;22.20;60.14;99873.13;5057142;28;20071;-64
2023/09/15 01:33:52;;;;;;;7.15;3.80;;;;;;;22.23;59.81;99876.19;5057612;28;20315;-67
2023/09/15 01:36:18;;;;;;;8.30;3.88;;;;;;;22.16;58.33;99875.47;5057458;28;20029;-67
2023/09/15 01:38:43;;;;;;;8.57;3.67;;;;;;;22.15;58.20;99884.63;5056516;28;20052;-67
2023/09/15 01:41:08;;;;;;;9.15;4.30;;;;;;;22.10;57.88;99887.22;5057326;28;20044;-67
2023/09/15 01:43:34;;;;;;;13.25;4.68;;;;;;;22.19;57.54;99895.78;5057936;28;20322;-66
2023/09/15 01:45:59;;;;;;;7.88;3.40;;;;;;;22.28;57.20;99892.50;5057862;28;20360;-67
2023/09/15 01:48:26;;;;;;;8.50;3.65;;;;;;;22.27;57.08;99898.13;5056999;28;20093;-67
2023/09/15 01:50:52;;;;;;;7.13;2.97;;;;;;;22.26;56.15;99901.88;5058560;28;20060;-65
2023/09/15 01:53:17;;;;;;;8.20;4.00;;;;;;;22.17;55.50;99905.97;5057178;28;20036;-64
2023/09/15 01:55:43;;;;;;;9.48;4.15;;;;;;;22.10;57.50;99906.09;5055612;28;20063;-64
2023/09/15 01:58:09;;;;;;;9.10;4.50;;;;;;;21.96;59.97;99907.31;5055330;28;20280;-67
2023/09/15 02:00:36;;;;;;;8.07;4.50;;;;;;;21.79;60.91;99904.44;5055389;28;20060;-67
2023/09/15 02:03:03;;;;;;;7.60;4.15;;;;;;;21.59;60.63;99904.75;5056083;28;20226;-67
2023/09/15 02:05:28;;;;;;;8.43;4.00;;;;;;;21.44;60.55;99900.84;5055574;28;20037;-67
2023/09/15 02:07:54;;;;;;;4.78;3.63;;;;;;;21.36;61.24;99899.28;5055729;28;20290;-64
2023/09/15 02:10:19;;;;;;;8.63;4.10;;;;;;;21.40;60.96;99907.72;5055265;28;20338;-66
2023/09/15 02:12:45;;;;;;;10.02;3.67;;;;;;;21.53;59.96;99921.00;5055556;28;20246;-65
2023/09/15 02:15:11;;;;;;;9.77;3.80;;;;;;;21.64;59.81;99909.44;5055236;28;20029;-64
2023/09/15 02:17:38;;;;;;;15.00;4.53;;;;;;;21.74;59.68;99907.03;5055310;28;20672;-67
2023/09/15 02:20:11;;;;;;;8.40;3.88;;;;;;;21.70;60.51;99911.22;5055494;28;20068;-65
2023/09/15 02:22:38;;;;;;;11.15;4.78;;;;;;;21.58;63.10;99904.97;5054466;28;20043;-66
2023/09/15 02:25:04;;;;;;;6.88;4.50;;;;;;;21.56;63.83;99917.88;5055123;28;20272;-64
2023/09/15 02:27:30;;;;;;;16.77;5.70;;;;;;;21.55;63.58;99913.53;5055150;28;20044;-67
2023/09/15 02:29:55;;;;;;;14.60;6.03;;;;;;;21.52;63.54;99917.50;5054738;28;20075;-64
2023/09/15 02:32:21;;;;;;;12.40;5.88;;;;;;;21.56;63.70;99915.16;5055430;28;20388;-64
2023/09/15 02:34:46;;;;;;;7.15;4.85;;;;;;;21.58;64.23;99915.75;5055192;28;20425;-65
2023/09/15 02:37:12;;;;;;;10.63;4.90;;;;;;;21.54;64.99;99922.66;5055768;28;20122;-65
2023/09/15 02:39:37;;;;;;;7.20;4.63;;;;;;;21.56;64.74;99912.47;5054890;28;20219;-67
2023/09/15 02:42:03;;;;;;;17.30;5.05;;;;;;;21.50;64.96;99916.91;5037100;28;20285;-67
2023/09/15 02:44:29;;;;;;;7.63;4.80;;;;;;;21.49;65.07;99914.44;5054949;28;20040;-67
2023/09/15 02:46:54;;;;;;;13.88;5.55;;;;;;;21.26;66.15;99913.31;5054400;28;20032;-65
2023/09/15 02:49:20;;;;;;;13.63;5.50;;;;;;;21.20;66.50;99914.19;5054941;28;20044;-67
2023/09/15 02:51:45;;;;;;;16.55;5.15;;;;;;;21.02;67.51;99914.19;5063618;28;20052;-67
2023/09/15 02:54:11;;;;;;;11.50;4.93;;;;;;;20.78;68.51;99905.13;5074547;28;20038;-65
2023/09/15 02:56:36;;;;;;;13.52;5.43;;;;;;;20.88;68.50;99910.84;5074610;28;20038;-64
2023/09/15 02:59:02;;;;;;;19.38;5.32;;;;;;;20.91;68.57;99918.47;5075777;28;20334;-64
2023/09/15 03:01:28;;;;;;;16.30;5.25;;;;;;;21.18;67.67;99924.34;5074803;28;20028;-65
2023/09/15 03:03:53;;;;;;;16.42;5.28;;;;;;;21.29;66.96;99920.09;5074835;28;20086;-67
2023/09/15 03:06:19;;;;;;;16.17;5.88;;;;;;;21.38;66.83;99923.31;5075188;28;20055;-66
2023/09/15 03:08:44;;;;;;;17.30;5.47;;;;;;;21.50;66.49;99924.16;5075510;28;20030;-67
2023/09/15 03:11:21;;;;;;;17.58;5.65;;;;;;;21.56;66.30;99924.06;5075069;28;20381;-67
2023/09/15 03:13:47;;;;;;;20.05;5.45;;;;;;;21.71;66.14;99917.44;5075025;28;20113;-64
2023/09/15 03:16:13;;;;;;;20.33;6.40;;;;;;;21.77;65.76;99928.13;5074740;28;20361;-67
2023/09/15 03:18:39;;;;;;;19.27;6.00;;;;;;;21.79;65.54;99928.72;5074607;28;20028;-67
2023/09/15 03:21:05;;;;;;;11.73;5.47;;;;;;;21.83;64.54;99929.91;5074768;28;20052;-67
2023/09/15 03:23:31;;;;;;;15.55;5.78;;;;;;;21.89;64.33;99934.38;5074946;28;20036;-65
2023/09/15 03:26:03;;;;;;;12.60;5.38;;;;;;;21.88;64.92;99926.53;5074756;28;20037;-67
2023/09/15 03:28:33;;;;;;;12.70;5.80;;;;;;;21.95;64.21;99938.03;5075788;28;20043;-67
2023/09/15 03:31:05;;;;;;;13.32;4.88;;;;;;;21.99;63.96;99925.72;5075764;28;20053;-67
2023/09/15 03:33:30;;;;;;;15.73;5.70;;;;;;;22.02;63.31;99943.31;5074903;28;20032;-64
2023/09/15 03:35:57;;;;;;;18.88;6.13;;;;;;;22.00;63.75;99946.25;5074943;28;20041;-66
2023/09/15 03:38:22;;;;;;;19.83;6.65;;;;;;;22.02;63.58;99956.81;5074917;28;20371;-65
2023/09/15 03:40:48;;;;;;;25.17;7.40;;;;;;;22.05;63.51;99954.50;5074338;28;20040;-67
2023/09/15 03:43:14;;;;;;;25.45;6.55;;;;;;;22.05;62.80;99957.19;5073949;28;20032;-67
2023/09/15 03:45:39;;;;;;;38.33;7.30;;;;;;;22.05;63.16;99951.81;5075803;28;20048;-67
2023/09/15 03:48:05;;;;;;;44.90;8.57;;;;;;;22.08;63.67;99958.59;5075601;28;20037;-65
2023/09/15 03:50:32;;;;;;;23.05;6.90;;;;;;;22.01;64.04;99960.56;5075278;28;20040;-67
2023/09/15 03:52:57;;;;;;;18.75;6.78;;;;;;;21.99;64.17;99958.91;5062011;28;20057;-67
2023/09/15 03:55:22;;;;;;;22.60;6.55;;;;;;;21.93;64.62;99964.41;5054029;28;20039;-65
2023/09/15 03:57:48;;;;;;;18.02;6.05;;;;;;;21.90;64.67;99971.09;5054186;28;20040;-67
2023/09/15 04:00:17;;;;;;;18.63;6.40;;;;;;;21.92;64.94;99970.84;5054240;28;20041;-64
2023/09/15 04:02:46;;;;;;;15.05;5.75;;;;;;;21.89;65.03;99980.22;5056999;28;20052;-64
2023/09/15 04:05:11;;;;;;;13.85;5.60;;;;;;;21.84;64.89;99982.75;5059049;28;20044;-65
2023/09/15 04:07:38;;;;;;;12.38;5.45;;;;;;;21.82;64.75;99984.84;5058037;28;20037;-65
2023/09/15 04:10:05;;;;;;;16.33;5.50;;;;;;;21.84;65.08;99990.84;5058607;28;20099;-66
2023/09/15 04:12:30;;;;;;;9.30;5.28;;;;;;;21.82;65.85;99986.72;5059176;28;20039;-66
2023/09/15 04:14:56;;;;;;;11.57;4.75;;;;;;;21.75;66.11;99989.53;5058438;28;20029;-67
2023/09/15 04:17:21;;;;;;;16.63;5.18;;;;;;;21.83;65.99;99991.06;5057485;28;20130;-66
2023/09/15 04:19:47;;;;;;;12.40;5.15;;;;;;;21.83;66.31;99997.28;5062917;28;20041;-65
2023/09/15 04:22:12;;;;;;;14.65;5.28;;;;;;;21.84;65.72;99990.00;5057211;28;20108;-66
2023/09/15 04:24:37;;;;;;;11.57;4.97;;;;;;;21.80;66.08;100000.44;5056969;28;20029;-67
2023/09/15 04:27:03;;;;;;;15.27;5.30;;;;;;;21.71;66.86;100007.19;5057415;28;20028;-67
2023/09/15 04:29:28;;;;;;;14.88;5.13;;;;;;;21.78;66.88;100004.41;5057484;28;20216;-65
2023/09/15 04:31:54;;;;;;;12.10;6.00;;;;;;;21.80;67.38;100005.00;5057447;28;20036;-65
2023/09/15 04:34:19;;;;;;;10.40;4.63;;;;;;;21.68;67.65;100008.47;5057068;28;20041;-65
2023/09/15 04:36:45;;;;;;;11.40;5.63;;;;;;;21.66;67.08;100015.16;5057031;28;20315;-67
2023/09/15 04:39:10;;;;;;;10.45;5.70;;;;;;;21.66;67.71;100018.66;5056749;28;20239;-65
2023/09/15 04:41:36;;;;;;;12.65;4.88;;;;;;;21.70;68.25;100024.41;5056470;28;20037;-65
2023/09/15 04:44:01;;;;;;;18.10;6.22;;;;;;;21.73;68.13;100026.66;5056920;28;20253;-65
2023/09/15 04:46:27;;;;;;;25.35;6.82;;;;;;;21.77;68.46;100029.72;5056783;28;20052;-64
2023/09/15 04:48:52;;;;;;;23.88;7.03;;;;;;;21.77;68.12;100033.25;5056519;28;20025;-67
2023/09/15 04:51:17;;;;;;;39.60;8.18;;;;;;;21.83;68.20;100026.13;5056851;28;20060;-65
2023/09/15 04:53:43;;;;;;;33.78;7.28;;;;;;;21.78;68.90;100028.66;5058247;28;20052;-67
2023/09/15 04:56:08;;;;;;;23.20;7.07;;;;;;;21.72;69.08;100033.09;5058611;28;20066;-67
2023/09/15 04:58:34;;;;;;;23.85;6.28;;;;;;;21.84;69.02;100036.66;5058300;28;20029;-65
2023/09/15 05:01:00;;;;;;;22.38;6.25;;;;;;;21.87;69.21;100028.16;5058378;28;20064;-66
2023/09/15 05:03:25;;;;;;;18.92;5.88;;;;;;;21.86;69.76;100023.81;5057335;28;20039;-67
2023/09/15 05:05:55;;;;;;;17.40;5.93;;;;;;;21.99;69.17;100025.50;5058242;28;20056;-67
2023/09/15 05:08:21;;;;;;;22.30;6.15;;;;;;;22.09;68.63;100019.56;5059294;28;20037;-67
2023/09/15 05:10:49;;;;;;;14.93;6.10;;;;;;;22.25;67.98;100022.44;5058330;28;20033;-67
2023/09/15 05:13:15;;;;;;;22.60;6.47;;;;;;;22.28;67.51;100018.44;5057457;28;20025;-68
2023/09/15 05:15:40;;;;;;;19.90;6.07;;;;;;;22.29;66.82;100023.63;5057937;28;20072;-67
2023/09/15 05:18:06;;;;;;;12.77;5.95;;;;;;;22.38;66.86;100024.09;5057977;28;20044;-64
2023/09/15 05:20:31;;;;;;;24.52;7.88;;;;;;;22.44;66.27;100033.97;5057655;28;20052;-65
2023/09/15 05:22:56;;;;;;;17.80;7.07;;;;;;;22.51;66.64;100033.84;5057868;28;20271;-67
2023/09/15 05:25:22;;;;;;;12.07;6.82;;;;;;;22.62;64.72;100031.16;5058469;28;20270;-68
2023/09/15 05:27:47;;;;;;;15.93;7.43;;;;;;;22.73;63.51;100034.09;5057550;28;20032;-65
2023/09/15 05:30:15;;;;;;;14.82;8.80;;;;;;;22.78;61.33;100036.91;5058169;28;20057;-68
2023/09/15 05:32:40;;;;;;;16.20;7.53;;;;;;;22.72;59.22;100035.97;5057341;28;20037;-67
2023/09/15 05:35:09;;;;;;;13.35;7.07;;;;;;;22.99;58.60;100035.56;5057639;28;20360;-67
2023/09/15 05:37:34;;;;;;;12.95;6.50;;;;;;;23.07;57.82;100035.22;5057659;28;20065;-67
2023/09/15 05:40:00;;;;;;;12.50;6.50;;;;;;;23.09;56.12;100039.31;5057359;28;20257;-67
2023/09/15 05:42:25;;;;;;;11.15;6.38;;;;;;;23.16;56.21;100031.09;5057367;28;20063;-65
2023/09/15 05:44:54;;;;;;;14.50;7.00;;;;;;;23.35;55.57;100043.38;5057359;28;20032;-67
2023/09/15 05:47:20;;;;;;;12.40;6.13;;;;;;;23.48;56.87;100043.13;5057327;28;20029;-65
2023/09/15 05:49:45;;;;;;;12.93;6.18;;;;;;;23.67;56.19;100051.09;5057159;28;20103;-65
2023/09/15 05:52:11;;;;;;;9.40;5.47;;;;;;;23.85;55.25;100053.59;5060968;28;20253;-65
2023/09/15 05:54:36;;;;;;;15.73;5.78;;;;;;;24.01;54.80;100060.16;5055506;28;20222;-65
2023/09/15 05:57:02;;;;;;;8.95;5.18;;;;;;;24.11;55.23;100049.50;5055510;28;20319;-65
2023/09/15 05:59:28;;;;;;;9.68;5.50;;;;;;;24.14;54.00;100049.84;5055546;28;20036;-65
2023/09/15 06:01:55;;;;;;;16.20;5.97;;;;;;;24.30;52.75;100050.16;5055160;28;20037;-68
2023/09/15 06:04:20;;;;;;;11.15;5.07;;;;;;;24.51;52.79;100046.72;5055154;28;20033;-63
2023/09/15 06:06:46;;;;;;;9.95;4.95;;;;;;;24.74;51.68;100043.84;5055223;28;20043;-63
2023/09/15 06:09:12;;;;;;;12.80;5.50;;;;;;;24.97;51.53;100051.00;5055511;28;20049;-65
2023/09/15 06:11:37;;;;;;;9.68;5.78;;;;;;;25.18;51.35;100056.72;5055428;28;20032;-68
2023/09/15 06:14:03;;;;;;;10.65;5.95;;;;;;;25.19;50.21;100048.34;5055731;28;20055;-67
2023/09/15 06:16:28;;;;;;;10.55;5.40;;;;;;;25.24;49.55;100045.69;5054678;28;20040;-67
2023/09/15 06:18:53;;;;;;;8.68;5.10;;;;;;;25.21;49.17;100048.09;5054758;28;20033;-67
2023/09/15 06:21:19;;;;;;;11.85;5.57;;;;;;;25.19;49.14;100045.63;5055285;28;20113;-67
2023/09/15 06:23:44;;;;;;;12.23;5.50;;;;;;;25.36;47.91;100048.28;5054949;28;20037;-67
2023/09/15 06:26:10;;;;;;;13.25;5.30;;;;;;;25.55;47.10;100043.38;5055246;28;20392;-67
2023/09/15 06:28:35;;;;;;;8.88;4.50;;;;;;;25.73;46.78;100051.19;5054868;28;20039;-65
2023/09/15 06:31:02;;;;;;;10.48;5.22;;;;;;;25.65;47.12;100047.03;5054779;28;20029;-65
2023/09/15 06:33:27;;;;;;;11.45;5.03;;;;;;;25.74;47.03;100044.72;5055152;28;20202;-65
2023/09/15 06:35:53;;;;;;;10.60;4.93;;;;;;;25.74;46.99;100052.84;5054886;28;20043;-65
2023/09/15 06:38:19;;;;;;;78.45;12.20;;;;;;;25.85;48.26;100053.78;5054810;28;20056;-65
2023/09/15 06:40:44;;;;;;;9.38;5.07;;;;;;;25.93;48.83;100051.44;5054004;28;20049;-65
2023/09/15 06:43:10;;;;;;;8.77;4.72;;;;;;;25.95;48.69;100059.31;5054410;28;20040;-65
2023/09/15 06:45:35;;;;;;;8.48;5.07;;;;;;;26.03;47.58;100046.13;5053992;28;20033;-67
2023/09/15 06:48:01;;;;;;;12.40;4.32;;;;;;;25.77;47.70;100030.63;5054332;28;20233;-67
2023/09/15 06:50:26;;;;;;;10.30;5.22;;;;;;;25.92;48.12;100052.50;5053991;28;20039;-65
2023/09/15 06:52:52;;;;;;;9.82;4.90;;;;;;;25.96;48.32;100053.63;5058697;28;20055;-67
2023/09/15 06:55:17;;;;;;;11.77;5.00;;;;;;;26.02;48.95;100065.38;5054176;28;20196;-66
2023/09/15 06:57:43;;;;;;;11.90;5.68;;;;;;;26.03;48.30;100056.16;5055029;28;20100;-67
2023/09/15 07:00:09;;;;;;;7.80;4.75;;;;;;;26.26;47.50;100063.19;5054725;28;20047;-65
2023/09/15 07:02:34;;;;;;;8.93;4.63;;;;;;;26.37;48.30;100063.03;5054956;28;20322;-67
2023/09/15 07:05:00;;;;;;;10.15;5.70;;;;;;;26.59;48.19;100059.41;5055454;28;20041;-65
2023/09/15 07:07:25;;;;;;;13.38;5.53;;;;;;;26.56;47.60;100054.50;5055688;28;20411;-66
2023/09/15 07:09:51;;;;;;;11.88;5.53;;;;;;;26.69;47.14;100054.88;5055220;28;20036;-68
2023/09/15 07:12:17;;;;;;;13.45;5.80;;;;;;;26.58;47.06;100047.75;5056048;28;20044;-66
2023/09/15 07:14:42;;;;;;;8.70;5.13;;;;;;;26.56;46.85;100052.59;5056810;28;20112;-65
2023/09/15 07:17:08;;;;;;;9.18;5.40;;;;;;;26.66;46.24;100054.59;5055521;28;20037;-66
2023/09/15 07:19:33;;;;;;;15.40;6.10;;;;;;;26.78;46.03;100049.78;5054820;28;20041;-65
2023/09/15 07:21:58;;;;;;;10.48;5.50;;;;;;;26.95;46.14;100047.72;5054841;28;20044;-66
2023/09/15 07:24:24;;;;;;;10.18;5.10;;;;;;;27.08;46.63;100051.13;5054992;28;20048;-68
2023/09/15 07:26:49;;;;;;;7.10;5.28;;;;;;;27.06;46.18;100047.84;5054236;28;20119;-66
2023/09/15 07:29:15;;;;;;;11.48;5.78;;;;;;;27.35;46.35;100049.09;5054519;28;20114;-66
2023/09/15 07:31:42;;;;;;;11.30;6.13;;;;;;;27.53;45.62;100048.63;5054462;28;20442;-65
2023/09/15 07:34:12;;;;;;;10.95;6.38;;;;;;;27.58;44.54;100045.91;5054640;28;20075;-65
2023/09/15 07:36:37;;;;;;;14.07;6.28;;;;;;;27.76;44.46;100049.28;5055514;28;20601;-65
2023/09/15 07:39:05;;;;;;;15.02;6.43;;;;;;;27.89;44.44;100049.56;5058091;28;20036;-67
2023/09/15 07:41:30;;;;;;;12.02;6.28;;;;;;;27.86;43.65;100049.28;5057551;28;20036;-65
2023/09/15 07:44:00;;;;;;;11.40;6.45;;;;;;;27.94;43.92;100044.16;5058310;28;20041;-67
2023/09/15 07:46:26;;;;;;;11.25;6.18;;;;;;;27.88;44.29;100049.84;5056663;28;20262;-68
2023/09/15 07:48:51;;;;;;;14.35;6.35;;;;;;;27.77;44.21;100043.56;5057872;28;20029;-68
2023/09/15 07:51:16;;;;;;;14.77;6.20;;;;;;;27.88;43.32;100044.41;5063257;28;20267;-65
2023/09/15 07:53:43;;;;;;;11.45;5.93;;;;;;;28.01;44.58;100043.06;5079463;28;20302;-68
2023/09/15 07:56:08;;;;;;;11.13;5.97;;;;;;;28.12;43.07;100042.03;5077702;28;20051;-68
2023/09/15 07:58:34;;;;;;;17.38;6.72;;;;;;;28.19;42.06;100043.41;5077923;28;20037;-68
2023/09/15 08:01:00;;;;;;;15.23;6.07;;;;;;;28.20;43.94;100045.03;5078306;28;20342;-67
2023/09/15 08:03:26;;;;;;;11.30;6.07;;;;;;;28.29;42.62;100043.44;5078287;28;20053;-68
2023/09/15 08:05:51;;;;;;;16.48;6.05;;;;;;;28.34;43.41;100037.19;5078277;28;20044;-66
2023/09/15 08:08:17;;;;;;;12.18;5.85;;;;;;;28.49;42.34;100028.19;5077555;28;20074;-68
2023/09/15 08:10:45;;;;;;;13.13;6.28;;;;;;;28.59;41.93;100033.63;5077123;28;20033;-66
2023/09/15 08:13:10;;;;;;;13.73;6.90;;;;;;;28.59;40.75;100026.28;5077612;28;20110;-68
2023/09/15 08:15:37;;;;;;;11.88;6.35;;;;;;;28.48;41.31;100032.81;5077230;28;20044;-68
2023/09/15 08:18:03;;;;;;;10.48;6.45;;;;;;;28.47;41.37;100025.75;5077488;28;20032;-66
2023/09/15 08:20:28;;;;;;;11.48;6.72;;;;;;;28.65;41.74;100029.00;5077020;28;20074;-68
2023/09/15 08:22:55;;;;;;;14.07;6.53;;;;;;;28.74;41.44;100019.16;5077250;28;20040;-65
2023/09/15 08:25:20;;;;;;;12.00;7.35;;;;;;;28.83;40.97;100018.38;5077116;28;20051;-65
2023/09/15 08:27:46;;;;;;;11.98;6.82;;;;;;;28.97;41.12;100020.50;5077342;28;20037;-65
2023/09/15 08:30:12;;;;;;;12.60;7.30;;;;;;;29.08;40.00;100013.94;5077423;28;20032;-66
2023/09/15 08:32:38;;;;;;;11.73;6.75;;;;;;;29.08;41.48;100005.75;5077142;28;20047;-66
2023/09/15 08:35:04;;;;;;;10.35;7.05;;;;;;;29.07;41.67;100015.84;5077312;28;20119;-68
2023/09/15 08:37:30;;;;;;;15.35;7.07;;;;;;;29.12;41.42;100007.66;5077343;28;20405;-67
2023/09/15 08:39:55;;;;;;;11.80;7.40;;;;;;;29.10;40.87;100004.38;5076709;28;20128;-68
2023/09/15 08:42:25;;;;;;;13.65;7.75;;;;;;;29.13;40.04;99992.97;5077344;28;20028;-68
2023/09/15 08:44:51;;;;;;;13.60;7.35;;;;;;;29.19;40.55;99985.56;5076928;28;20120;-66
2023/09/15 08:47:18;;;;;;;12.25;7.00;;;;;;;29.20;41.28;99993.47;5076520;28;20249;-68
2023/09/15 08:49:45;;;;;;;15.38;6.28;;;;;;;29.16;40.91;99989.69;5076789;28;20033;-66
2023/09/15 08:52:11;;;;;;;9.68;6.80;;;;;;;29.21;39.89;99984.19;5065170;28;20041;-67
2023/09/15 08:54:37;;;;;;;14.30;7.28;;;;;;;29.14;38.17;99986.41;5057055;28;20067;-68
2023/09/15 08:57:02;;;;;;;13.45;7.05;;;;;;;29.13;38.87;99983.94;5057180;28;20107;-68
2023/09/15 08:59:29;;;;;;;12.80;7.18;;;;;;;29.10;39.07;99984.47;5056785;28;20033;-68
2023/09/15 09:01:55;;;;;;;15.85;7.43;;;;;;;29.07;39.79;99979.59;5057612;28;20044;-66
2023/09/15 09:04:20;;;;;;;9.10;6.93;;;;;;;29.03;39.70;99979.31;5057365;28;20033;-68
2023/09/15 09:06:48;;;;;;;11.85;7.20;;;;;;;29.14;39.42;99977.41;5057763;28;20036;-68
2023/09/15 09:09:14;;;;;;;10.40;6.70;;;;;;;29.20;38.68;99974.38;5058013;28;20330;-66
2023/09/15 09:11:39;;;;;;;10.85;7.00;;;;;;;29.24;40.32;99972.72;5056285;28;20047;-65
2023/09/15 09:14:11;;;;;;;10.75;7.07;;;;;;;29.22;39.76;99980.38;5056793;28;20022;-66
2023/09/15 09:16:37;;;;;;;9.77;6.75;;;;;;;29.23;39.98;99979.28;5057121;28;20040;-68
2023/09/15 09:19:06;;;;;;;13.38;7.07;;;;;;;29.15;39.46;99976.31;5056795;28;20051;-67
2023/09/15 09:21:33;;;;;;;11.35;7.10;;;;;;;29.02;38.60;99979.59;5056612;28;20349;-68
2023/09/15 09:23:59;;;;;;;11.93;7.13;;;;;;;29.02;38.66;99971.44;5057059;28;20033;-67
2023/09/15 09:26:25;;;;;;;12.07;6.70;;;;;;;29.03;38.40;99973.06;5055545;28;20033;-66
2023/09/15 09:28:54;;;;;;;7.90;5.63;;;;;;;28.79;38.68;99967.38;5056382;28;20033;-65
2023/09/15 09:31:21;;;;;;;10.82;6.45;;;;;;;28.64;38.98;99967.41;5056205;28;20112;-65
2023/09/15 09:33:46;;;;;;;10.18;6.20;;;;;;;28.52;38.29;99963.06;5057338;28;20028;-68
2023/09/15 09:36:13;;;;;;;12.02;6.55;;;;;;;28.53;38.96;99959.25;5056695;28;20047;-68
2023/09/15 09:38:44;;;;;;;9.23;5.88;;;;;;;28.54;38.97;99949.19;5056155;28;20116;-65
2023/09/15 09:41:10;;;;;;;9.18;6.03;;;;;;;28.32;39.30;99954.94;5056026;28;20052;-66
2023/09/15 09:43:38;;;;;;;10.05;5.30;;;;;;;28.36;39.90;99947.03;5056085;28;20288;-67
2023/09/15 09:46:04;;;;;;;8.52;6.07;;;;;;;28.21;40.25;99947.84;5056261;28;20457;-65
2023/09/15 09:48:32;;;;;;;8.73;6.28;;;;;;;28.24;39.98;99939.16;5054882;28;20032;-67
2023/09/15 09:50:58;;;;;;;9.10;5.95;;;;;;;28.20;40.50;99941.56;5058732;28;20235;-68
2023/09/15 09:53:28;;;;;;;14.90;6.55;;;;;;;28.22;40.36;99942.13;5076416;28;20036;-67
2023/09/15 09:55:55;;;;;;;9.20;6.38;;;;;;;28.22;40.77;99939.38;5076025;28;20033;-65
2023/09/15 09:58:22;;;;;;;10.82;6.82;;;;;;;28.30;40.95;99927.16;5075737;28;20214;-67
2023/09/15 10:00:50;;;;;;;16.33;6.25;;;;;;;28.38;40.23;99929.31;5075281;28;20242;-65
2023/09/15 10:03:16;;;;;;;12.13;5.93;;;;;;;28.34;40.59;99930.16;5075988;28;20375;-67
2023/09/15 10:05:41;;;;;;;9.20;6.28;;;;;;;28.39;39.99;99920.06;5075383;28;20307;-66
2023/09/15 10:08:07;;;;;;;9.93;6.80;;;;;;;28.43;40.01;99931.22;5075901;28;20117;-66
2023/09/15 10:10:33;;;;;;;7.80;5.93;;;;;;;28.41;40.75;99919.78;5076213;28;20070;-65
2023/09/15 10:13:00;;;;;;;9.23;6.85;;;;;;;28.38;39.77;99926.59;5075669;28;20101;-65
2023/09/15 10:15:25;;;;;;;10.43;6.18;;;;;;;28.42;41.66;99929.59;5074355;28;20284;-66
2023/09/15 10:17:52;;;;;;;8.77;5.55;;;;;;;28.45;40.22;99926.31;5073499;28;20039;-67
2023/09/15 10:20:18;;;;;;;11.45;5.88;;;;;;;28.48;41.53;99923.88;5075185;28;20047;-67
2023/09/15 10:22:45;;;;;;;6.20;5.60;;;;;;;28.49;39.33;99922.78;5075563;28;20032;-65
2023/09/15 10:25:21;;;;;;;9.57;5.85;;;;;;;28.52;39.37;99921.41;5075610;28;20051;-67
2023/09/15 10:27:46;;;;;;;7.72;5.78;;;;;;;28.55;39.49;99915.41;5075669;28;20040;-65
2023/09/15 10:30:12;;;;;;;6.72;5.43;;;;;;;28.50;39.50;99907.25;5076564;28;20462;-68
2023/09/15 10:32:41;;;;;;;7.90;6.00;;;;;;;28.61;39.89;99906.94;5074808;28;20345;-65
2023/09/15 10:35:08;;;;;;;9.38;6.03;;;;;;;28.68;39.57;99912.09;5074717;28;20035;-68
2023/09/15 10:37:33;;;;;;;8.48;6.35;;;;;;;28.66;39.21;99899.84;5075000;28;20109;-65
2023/09/15 10:39:59;;;;;;;8.27;6.05;;;;;;;28.75;38.71;99918.06;5075294;28;20036;-67
2023/09/15 10:42:26;;;;;;;9.20;6.28;;;;;;;28.70;39.66;99909.91;5074794;28;20341;-65
2023/09/15 10:44:52;;;;;;;8.00;5.93;;;;;;;28.62;38.70;99910.47;5074890;28;20082;-66
2023/09/15 10:47:18;;;;;;;9.32;6.70;;;;;;;28.68;39.34;99903.09;5074834;28;20064;-68
2023/09/15 10:49:53;;;;;;;10.57;5.57;;;;;;;28.75;38.92;99890.00;5075365;28;20288;-67
2023/09/15 10:52:33;;;;;;;8.60;6.03;;;;;;;28.69;38.48;99875.59;5075380;28;20036;-68
2023/09/15 10:54:58;;;;;;;8.20;5.82;;;;;;;28.78;38.21;99875.81;5073830;28;20106;-68
2023/09/15 10:57:24;;;;;;;8.90;6.18;;;;;;;28.90;39.43;99877.16;5074810;28;20259;-68
2023/09/15 10:59:51;;;;;;;8.40;5.40;;;;;;;28.96;38.43;99880.69;5074922;28;20376;-65
2023/09/15 11:02:19;;;;;;;7.93;5.55;;;;;;;29.03;37.85;99881.19;5075056;28;20064;-67
2023/09/15 11:04:45;;;;;;;5.47;4.85;;;;;;;28.98;37.67;99880.41;5074846;28;20215;-65
2023/09/15 11:07:11;;;;;;;7.25;5.00;;;;;;;29.00;38.19;99870.84;5074925;28;20093;-68
2023/09/15 11:09:41;;;;;;;7.65;5.30;;;;;;;29.02;38.29;99874.09;5074537;28;20135;-68
2023/09/15 11:12:07;;;;;;;13.32;5.90;;;;;;;29.08;38.44;99870.25;5078746;28;20261;-66
2023/09/15 11:14:32;;;;;;;9.23;5.78;;;;;;;29.18;38.68;99864.78;5078880;28;20041;-67
2023/09/15 11:16:58;;;;;;;9.68;5.15;;;;;;;29.27;37.35;99870.44;5078809;28;20040;-67
2023/09/15 11:19:30;;;;;;;8.50;5.53;;;;;;;29.25;37.16;99864.47;5078870;28;20108;-68
2023/09/15 11:21:56;;;;;;;8.13;5.45;;;;;;;29.27;37.29;99864.19;5078781;28;20032;-66